createdAt,value
2022-08-08T00:01:06.546Z,99.90
2022-08-08T00:03:47.515Z,99.90
2022-08-08T00:06:28.283Z,99.90
2022-08-08T00:09:08.011Z,99.90
2022-08-08T00:11:46.586Z,99.90
2022-08-08T00:14:59.090Z,99.90
2022-08-08T00:17:58.450Z,99.90
2022-08-08T00:20:37.615Z,99.90
2022-08-08T00:23:11.635Z,99.90
2022-08-08T00:25:50.553Z,99.90
2022-08-08T00:28:35.928Z,99.90
2022-08-08T00:32:15.607Z,99.90
2022-08-08T00:34:20.306Z,99.90
2022-08-08T00:36:55.696Z,99.90
2022-08-08T00:41:12.459Z,99.90
2022-08-08T00:42:55.818Z,99.90
2022-08-08T00:45:55.298Z,99.90
2022-08-08T00:48:59.171Z,99.90
2022-08-08T00:52:19.900Z,99.90
2022-08-08T00:55:36.098Z,99.90
2022-08-08T00:58:59.875Z,99.90
2022-08-08T01:01:39.177Z,99.90
2022-08-08T01:04:41.863Z,99.90
2022-08-08T01:07:56.019Z,99.90
2022-08-08T01:10:58.138Z,99.90
2022-08-08T01:14:16.460Z,99.90
2022-08-08T01:17:35.064Z,99.90
2022-08-08T01:21:04.121Z,99.90
2022-08-08T01:24:13.865Z,99.90
2022-08-08T01:27:44.251Z,99.90
2022-08-08T01:32:05.511Z,99.90
2022-08-08T01:34:49.663Z,99.90
2022-08-08T01:38:03.209Z,99.90
2022-08-08T01:40:36.138Z,99.90
2022-08-08T01:43:17.930Z,99.90
2022-08-08T01:46:02.778Z,99.90
2022-08-08T01:48:49.522Z,99.90
2022-08-08T01:52:41.311Z,99.90
2022-08-08T01:55:18.884Z,99.90
2022-08-08T01:58:11.831Z,99.90
2022-08-08T02:00:27.898Z,99.90
2022-08-08T02:03:56.918Z,99.90
2022-08-08T02:06:31.578Z,99.90
2022-08-08T02:09:15.911Z,99.90
2022-08-08T02:11:59.972Z,99.90
2022-08-08T02:14:35.216Z,99.90
2022-08-08T02:17:36.037Z,99.90
2022-08-08T02:21:00.752Z,99.90
2022-08-08T02:23:16.005Z,99.90
2022-08-08T02:25:52.998Z,99.90
2022-08-08T02:28:41.483Z,99.90
2022-08-08T02:31:58.340Z,99.90
2022-08-08T02:34:27.553Z,99.90
2022-08-08T02:37:52.610Z,99.90
2022-08-08T02:40:06.465Z,99.90
2022-08-08T02:44:39.154Z,99.90
2022-08-08T02:46:31.589Z,99.90
2022-08-08T02:49:47.705Z,99.90
2022-08-08T02:52:52.148Z,99.90
2022-08-08T02:55:37.628Z,99.90
2022-08-08T02:58:48.736Z,99.90
2022-08-08T03:01:50.424Z,99.90
2022-08-08T03:05:12.220Z,99.90
2022-08-08T03:08:16.139Z,99.90
2022-08-08T03:11:47.767Z,99.90
2022-08-08T03:16:00.783Z,99.90
2022-08-08T03:17:25.776Z,99.90
2022-08-08T03:20:10.331Z,99.90
2022-08-08T03:22:46.878Z,99.90
2022-08-08T03:25:18.429Z,99.90
2022-08-08T03:27:56.600Z,99.90
2022-08-08T03:30:26.246Z,99.90
2022-08-08T03:33:55.618Z,99.90
2022-08-08T03:36:01.066Z,99.90
2022-08-08T03:38:57.738Z,99.90
2022-08-08T03:42:11.810Z,99.90
2022-08-08T03:44:07.087Z,99.90
2022-08-08T03:46:44.810Z,99.90
2022-08-08T03:49:58.266Z,99.90
2022-08-08T03:52:08.173Z,99.90
2022-08-08T03:55:02.185Z,99.90
2022-08-08T03:58:30.245Z,99.90
2022-08-08T04:00:22.139Z,99.90
2022-08-08T04:02:59.744Z,99.90
2022-08-08T04:05:30.135Z,99.90
2022-08-08T04:07:59.163Z,99.90
2022-08-08T04:10:32.924Z,99.90
2022-08-08T04:13:17.227Z,99.90
2022-08-08T04:16:03.594Z,99.90
2022-08-08T04:18:39.346Z,99.90
2022-08-08T04:21:10.250Z,99.90
2022-08-08T04:24:12.036Z,99.90
2022-08-08T04:26:27.379Z,99.90
2022-08-08T04:29:08.677Z,99.90
2022-08-08T04:31:59.164Z,99.90
2022-08-08T04:34:28.105Z,99.90
2022-08-08T04:37:03.678Z,99.90
2022-08-08T04:40:04.348Z,99.90
2022-08-08T04:42:21.423Z,99.90
2022-08-08T04:44:52.599Z,99.90
2022-08-08T04:47:20.783Z,99.90
2022-08-08T04:50:00.518Z,99.90
2022-08-08T04:52:33.736Z,99.90
2022-08-08T04:55:04.464Z,99.90
2022-08-08T04:57:35.937Z,99.90
2022-08-08T05:00:05.487Z,99.90
2022-08-08T05:02:33.873Z,99.90
2022-08-08T05:05:02.071Z,99.90
2022-08-08T05:07:37.760Z,99.90
2022-08-08T05:10:12.517Z,99.90
2022-08-08T05:12:53.650Z,99.90
2022-08-08T05:16:47.872Z,99.90
2022-08-08T05:18:16.445Z,99.90
2022-08-08T05:20:50.155Z,99.90
2022-08-08T05:23:20.630Z,99.90
2022-08-08T05:25:49.826Z,99.90
2022-08-08T05:28:48.052Z,99.90
2022-08-08T05:31:19.094Z,99.90
2022-08-08T05:33:55.635Z,99.90
2022-08-08T05:36:28.173Z,99.90
2022-08-08T05:38:59.308Z,99.90
2022-08-08T05:41:27.816Z,99.90
2022-08-08T05:44:04.924Z,99.90
2022-08-08T05:46:33.938Z,99.90
2022-08-08T05:49:07.554Z,99.90
2022-08-08T05:51:48.731Z,99.90
2022-08-08T05:54:28.687Z,99.90
2022-08-08T05:57:11.118Z,99.90
2022-08-08T06:00:00.757Z,99.90
2022-08-08T06:02:52.940Z,99.90
2022-08-08T06:05:34.845Z,99.90
2022-08-08T06:08:10.268Z,99.90
2022-08-08T06:10:54.788Z,99.90
2022-08-08T06:13:23.613Z,99.90
2022-08-08T06:15:56.045Z,99.90
2022-08-08T06:18:26.068Z,99.90
2022-08-08T06:20:57.599Z,99.90
2022-08-08T06:23:48.646Z,99.90
2022-08-08T06:26:38.576Z,99.90
2022-08-08T06:29:26.481Z,99.90
2022-08-08T06:32:11.158Z,99.90
2022-08-08T06:34:56.534Z,99.90
2022-08-08T06:37:39.500Z,99.90
2022-08-08T06:40:12.840Z,99.90
2022-08-08T06:42:57.192Z,99.90
2022-08-08T06:45:26.105Z,99.90
2022-08-08T06:48:01.189Z,99.90
2022-08-08T06:50:33.399Z,99.90
2022-08-08T06:53:09.833Z,99.90
2022-08-08T06:55:43.267Z,99.90
2022-08-08T06:58:11.351Z,99.90
2022-08-08T07:00:41.264Z,99.90
2022-08-08T07:03:52.342Z,99.90
2022-08-08T07:06:11.400Z,99.90
2022-08-08T07:08:40.607Z,99.90
2022-08-08T07:11:22.259Z,99.90
2022-08-08T07:14:00.670Z,99.90
2022-08-08T07:16:50.115Z,99.90
2022-08-08T07:19:31.655Z,99.90
2022-08-08T07:22:18.873Z,99.90
2022-08-08T07:24:53.394Z,99.90
2022-08-08T07:27:35.014Z,99.90
2022-08-08T07:30:21.246Z,99.90
2022-08-08T07:32:54.777Z,99.90
2022-08-08T07:35:30.870Z,99.90
2022-08-08T07:38:10.546Z,99.90
2022-08-08T07:40:50.591Z,99.90
2022-08-08T07:43:23.214Z,99.90
2022-08-08T07:46:18.360Z,99.90
2022-08-08T07:48:51.814Z,99.90
2022-08-08T07:51:23.711Z,99.90
2022-08-08T07:54:26.708Z,99.90
2022-08-08T07:57:04.462Z,99.90
2022-08-08T07:59:48.642Z,99.90
2022-08-08T08:02:36.762Z,99.90
2022-08-08T08:05:14.989Z,99.90
2022-08-08T08:07:53.310Z,99.90
2022-08-08T08:10:30.382Z,99.90
2022-08-08T08:13:26.052Z,99.90
2022-08-08T08:16:12.286Z,99.90
2022-08-08T08:18:51.768Z,99.90
2022-08-08T08:21:44.431Z,99.90
2022-08-08T08:24:18.751Z,99.90
2022-08-08T08:26:54.731Z,99.90
2022-08-08T08:29:24.037Z,99.90
2022-08-08T08:31:58.331Z,99.90
2022-08-08T08:34:31.889Z,99.90
2022-08-08T08:37:00.881Z,99.90
2022-08-08T08:39:59.675Z,99.90
2022-08-08T08:42:31.999Z,99.90
2022-08-08T08:45:21.988Z,99.90
2022-08-08T08:47:53.981Z,99.90
2022-08-08T08:50:32.390Z,99.90
2022-08-08T08:53:28.202Z,99.90
2022-08-08T08:55:56.002Z,99.90
2022-08-08T08:58:33.168Z,99.90
2022-08-08T09:01:09.260Z,99.90
2022-08-08T09:03:47.105Z,99.90
2022-08-08T09:06:28.433Z,99.90
2022-08-08T09:09:07.462Z,99.90
2022-08-08T09:12:02.189Z,99.90
2022-08-08T09:14:42.457Z,99.90
2022-08-08T09:17:17.891Z,99.90
2022-08-08T09:22:02.282Z,99.90
2022-08-08T09:22:35.892Z,99.90
2022-08-08T09:25:06.188Z,99.90
2022-08-08T09:27:56.635Z,99.90
2022-08-08T09:30:27.795Z,99.90
2022-08-08T09:33:01.337Z,12.90
2022-08-08T09:35:49.689Z,99.90
2022-08-08T09:38:53.571Z,99.90
2022-08-08T09:41:54.794Z,99.90
2022-08-08T09:44:34.402Z,99.90
2022-08-08T09:48:02.025Z,99.90
2022-08-08T09:49:58.875Z,99.90
2022-08-08T09:52:56.245Z,99.90
2022-08-08T09:55:51.803Z,99.90
2022-08-08T09:58:25.763Z,99.90
2022-08-08T10:01:00.623Z,99.90
2022-08-08T10:03:31.525Z,99.90
2022-08-08T10:06:00.906Z,99.90
2022-08-08T10:08:32.942Z,99.90
2022-08-08T10:11:00.963Z,99.90
2022-08-08T10:13:35.894Z,99.90
2022-08-08T10:16:09.171Z,99.90
2022-08-08T10:18:39.536Z,99.90
2022-08-08T10:21:24.966Z,99.90
2022-08-08T10:23:58.442Z,99.90
2022-08-08T10:26:57.540Z,99.90
2022-08-08T10:29:25.123Z,99.90
2022-08-08T10:32:17.014Z,99.90
2022-08-08T10:34:57.071Z,99.90
2022-08-08T10:37:30.815Z,99.90
2022-08-08T10:40:06.766Z,99.90
2022-08-08T10:42:37.709Z,99.90
2022-08-08T10:45:16.142Z,99.90
2022-08-08T10:47:55.119Z,99.90
2022-08-08T10:50:24.593Z,99.90
2022-08-08T10:53:02.420Z,99.90
2022-08-08T10:55:40.199Z,99.90
2022-08-08T10:58:11.865Z,99.90
2022-08-08T11:00:53.549Z,99.90
2022-08-08T11:04:00.810Z,99.90
2022-08-08T11:06:32.050Z,99.30
2022-08-08T11:09:09.983Z,99.90
2022-08-08T11:12:05.160Z,98.80
2022-08-08T11:14:48.459Z,99.90
2022-08-08T11:17:17.898Z,98.40
2022-08-08T11:20:12.361Z,97.70
2022-08-08T11:22:42.542Z,97.80
2022-08-08T11:25:14.454Z,99.90
2022-08-08T11:27:44.507Z,98.10
2022-08-08T11:30:24.419Z,96.70
2022-08-08T11:32:57.381Z,98.80
2022-08-08T11:35:38.548Z,97.20
2022-08-08T11:38:35.293Z,96.80
2022-08-08T11:41:02.610Z,97.30
2022-08-08T11:43:39.132Z,97.50
2022-08-08T11:46:13.546Z,95.50
2022-08-08T11:48:47.109Z,96.20
2022-08-08T11:51:30.487Z,99.10
2022-08-08T11:54:09.781Z,96.70
2022-08-08T11:56:56.423Z,95.80
2022-08-08T11:59:57.761Z,96.90
2022-08-08T12:02:32.756Z,95.30
2022-08-08T12:05:03.058Z,1.00
2022-08-08T12:07:32.363Z,1.00
2022-08-08T12:10:12.213Z,1.00
2022-08-08T12:12:45.992Z,1.00
2022-08-08T12:15:27.730Z,21.80
2022-08-08T12:17:56.140Z,79.10
2022-08-08T12:20:25.566Z,41.70
2022-08-08T12:22:57.168Z,99.90
2022-08-08T12:25:30.083Z,1.00
2022-08-08T12:28:15.777Z,99.90
2022-08-08T12:30:49.971Z,99.90
2022-08-08T12:33:19.859Z,99.90
2022-08-08T12:35:52.815Z,1.00
2022-08-08T12:38:30.522Z,1.00
2022-08-08T12:41:07.011Z,1.00
2022-08-08T12:43:59.758Z,99.90
2022-08-08T12:46:28.759Z,50.00
2022-08-08T12:51:58.941Z,99.90
2022-08-08T12:54:33.417Z,17.60
2022-08-08T12:57:15.178Z,19.50
2022-08-08T13:00:05.800Z,1.00
2022-08-08T13:02:51.073Z,1.00
2022-08-08T13:05:26.429Z,28.00
2022-08-08T13:08:16.803Z,24.80
2022-08-08T13:10:56.822Z,99.90
2022-08-08T13:13:35.005Z,15.50
2022-08-08T13:16:19.273Z,17.50
2022-08-08T13:18:55.889Z,18.30
2022-08-08T13:21:48.632Z,19.80
2022-08-08T13:24:18.711Z,26.10
2022-08-08T13:27:11.781Z,23.30
2022-08-08T13:29:50.561Z,24.00
2022-08-08T13:32:23.673Z,34.50
2022-08-08T13:34:55.103Z,58.00
2022-08-08T13:37:27.919Z,27.20
2022-08-08T13:40:17.770Z,27.20
2022-08-08T13:42:56.463Z,28.60
2022-08-08T13:45:26.261Z,28.50
2022-08-08T13:47:58.157Z,28.40
2022-08-08T13:50:37.106Z,24.90
2022-08-08T13:53:22.963Z,25.00
2022-08-08T13:55:58.810Z,24.70
2022-08-08T13:58:30.167Z,30.00
2022-08-08T14:00:58.139Z,26.20
2022-08-08T14:03:53.648Z,27.40
2022-08-08T14:06:32.527Z,29.20
2022-08-08T14:09:24.814Z,29.60
2022-08-08T14:11:51.153Z,35.70
2022-08-08T14:14:27.002Z,38.70
2022-08-08T14:16:55.725Z,37.30
2022-08-08T14:19:57.048Z,38.60
2022-08-08T14:22:24.235Z,37.20
2022-08-08T14:24:54.583Z,37.60
2022-08-08T14:27:28.823Z,35.30
2022-08-08T14:30:08.231Z,33.60
2022-08-08T14:32:47.292Z,34.40
2022-08-08T14:35:34.976Z,33.10
2022-08-08T14:38:33.102Z,47.30
2022-08-08T14:40:59.035Z,47.30
2022-08-08T14:44:01.676Z,41.10
2022-08-08T14:46:31.161Z,50.50
2022-08-08T14:49:09.334Z,47.40
2022-08-08T14:51:53.229Z,51.30
2022-08-08T14:54:28.813Z,61.60
2022-08-08T14:56:58.402Z,59.00
2022-08-08T14:59:43.561Z,53.80
2022-08-08T15:02:25.823Z,57.40
2022-08-08T15:05:10.722Z,58.30
2022-08-08T15:07:40.724Z,60.50
2022-08-08T15:10:11.521Z,64.90
2022-08-08T15:12:41.637Z,65.90
2022-08-08T15:15:10.528Z,60.60
2022-08-08T15:17:41.809Z,65.30
2022-08-08T15:20:14.191Z,72.60
2022-08-08T15:22:44.668Z,74.60
2022-08-08T15:25:17.954Z,72.80
2022-08-08T15:28:04.452Z,73.00
2022-08-08T15:30:45.760Z,67.30
2022-08-08T15:33:35.034Z,72.60
2022-08-08T15:36:06.487Z,70.90
2022-08-08T15:38:34.439Z,77.50
2022-08-08T15:41:02.330Z,77.80
2022-08-08T15:43:36.219Z,74.40
2022-08-08T15:46:05.964Z,75.10
2022-08-08T15:48:36.405Z,82.80
2022-08-08T15:51:07.206Z,90.70
2022-08-08T15:53:49.160Z,90.90
2022-08-08T15:56:19.942Z,94.50
2022-08-08T15:58:50.197Z,96.00
2022-08-08T16:01:18.558Z,99.90
2022-08-08T16:03:51.486Z,99.90
2022-08-08T16:06:27.775Z,96.40
2022-08-08T16:13:02.414Z,99.90
2022-08-08T16:13:21.206Z,99.50
2022-08-08T16:14:34.559Z,95.00
2022-08-08T16:17:02.781Z,99.30
2022-08-08T16:19:59.970Z,99.90
2022-08-08T16:22:38.927Z,99.90
2022-08-08T16:25:10.589Z,99.90
2022-08-08T16:27:38.893Z,99.90
2022-08-08T16:30:14.162Z,99.90
2022-08-08T16:32:48.579Z,99.90
2022-08-08T16:35:22.940Z,99.90
2022-08-08T16:37:51.991Z,99.90
2022-08-08T16:40:20.224Z,99.90
2022-08-08T16:42:51.491Z,99.90
2022-08-08T16:46:37.434Z,99.90
2022-08-08T16:48:10.063Z,99.90
2022-08-08T16:50:42.838Z,99.90
2022-08-08T16:55:00.446Z,99.90
2022-08-08T16:56:00.486Z,99.90
2022-08-08T16:58:31.693Z,99.90
2022-08-08T17:01:03.154Z,99.90
2022-08-08T17:03:58.591Z,99.90
2022-08-08T17:06:36.911Z,99.90
2022-08-08T17:09:14.848Z,99.90
2022-08-08T17:11:48.631Z,99.90
2022-08-08T17:14:19.385Z,99.90
2022-08-08T17:16:51.712Z,99.90
2022-08-08T17:19:25.963Z,99.90
2022-08-08T17:21:56.039Z,99.90
2022-08-08T17:24:28.118Z,99.90
2022-08-08T17:26:58.781Z,99.90
2022-08-08T17:29:27.246Z,99.90
2022-08-08T17:31:57.519Z,99.90
2022-08-08T17:34:48.334Z,99.90
2022-08-08T17:37:15.294Z,99.90
2022-08-08T17:40:05.572Z,99.90
2022-08-08T17:42:35.387Z,99.90
2022-08-08T17:45:04.022Z,99.90
2022-08-08T17:47:40.089Z,99.90
2022-08-08T17:50:11.282Z,99.90
2022-08-08T17:52:43.195Z,99.90
2022-08-08T17:56:06.191Z,99.90
2022-08-08T17:58:03.763Z,99.90
2022-08-08T18:00:32.175Z,99.90
2022-08-08T18:03:08.378Z,99.90
2022-08-08T18:05:48.265Z,99.90
2022-08-08T18:08:37.719Z,99.90
2022-08-08T18:11:11.673Z,1.00
2022-08-08T18:13:42.857Z,1.00
2022-08-08T18:16:12.924Z,1.00
2022-08-08T18:18:53.666Z,1.00
2022-08-08T18:21:24.834Z,1.00
2022-08-08T18:24:04.980Z,99.90
2022-08-08T18:26:34.116Z,99.90
2022-08-08T18:29:02.530Z,99.90
2022-08-08T18:31:33.853Z,1.00
2022-08-08T18:34:11.345Z,1.00
2022-08-08T18:36:50.454Z,1.00
2022-08-08T18:39:28.805Z,1.00
2022-08-08T18:41:59.817Z,99.90
2022-08-08T18:44:33.003Z,1.00
2022-08-08T18:47:03.192Z,1.00
2022-08-08T18:49:41.023Z,99.90
2022-08-08T18:52:23.021Z,1.00
2022-08-08T18:55:00.935Z,1.00
2022-08-08T18:57:41.202Z,99.90
2022-08-08T19:00:16.767Z,99.90
2022-08-08T19:02:55.330Z,1.00
2022-08-08T19:05:32.485Z,1.00
2022-08-08T19:08:10.046Z,99.90
2022-08-08T19:10:41.181Z,99.90
2022-08-08T19:13:21.397Z,1.00
2022-08-08T19:15:55.871Z,1.00
2022-08-08T19:18:31.987Z,99.90
2022-08-08T19:21:28.844Z,1.00
2022-08-08T19:23:59.105Z,1.00
2022-08-08T19:26:31.188Z,99.90
2022-08-08T19:28:59.886Z,1.00
2022-08-08T19:31:31.773Z,99.90
2022-08-08T19:34:36.510Z,1.00
2022-08-08T19:36:53.495Z,99.90
2022-08-08T19:39:23.609Z,1.00
2022-08-08T19:41:52.963Z,1.00
2022-08-08T19:44:26.762Z,1.00
2022-08-08T19:47:09.009Z,24.70
2022-08-08T19:49:43.177Z,1.00
2022-08-08T19:52:35.140Z,59.60
2022-08-08T19:55:08.905Z,99.90
2022-08-08T19:57:38.455Z,99.90
2022-08-08T20:00:11.635Z,99.90
2022-08-08T20:02:57.523Z,99.90
2022-08-08T20:06:14.229Z,99.90
2022-08-08T20:08:27.984Z,99.90
2022-08-08T20:10:59.848Z,99.90
2022-08-08T20:14:13.147Z,99.90
2022-08-08T20:16:18.134Z,99.90
2022-08-08T20:18:52.666Z,99.90
2022-08-08T20:21:23.017Z,99.90
2022-08-08T20:23:54.229Z,99.90
2022-08-08T20:26:30.203Z,99.90
2022-08-08T20:29:04.125Z,99.90
2022-08-08T20:32:08.137Z,99.90
2022-08-08T20:34:29.510Z,99.90
2022-08-08T20:36:59.968Z,99.90
2022-08-08T20:39:39.559Z,99.90
2022-08-08T20:42:15.925Z,99.90
2022-08-08T20:44:45.269Z,99.90
2022-08-08T20:47:23.187Z,99.90
2022-08-08T20:49:54.106Z,99.90
2022-08-08T20:52:24.058Z,99.90
2022-08-08T20:54:52.012Z,99.90
2022-08-08T20:57:28.948Z,99.90
2022-08-08T20:59:59.050Z,99.90
2022-08-08T21:02:27.522Z,99.90
2022-08-08T21:05:00.768Z,99.90
2022-08-08T21:07:47.410Z,99.90
2022-08-08T21:10:17.863Z,99.90
2022-08-08T21:12:53.011Z,99.90
2022-08-08T21:16:06.461Z,99.90
2022-08-08T21:18:12.251Z,99.90
2022-08-08T21:20:42.270Z,99.90
2022-08-08T21:23:13.263Z,99.90
2022-08-08T21:25:48.747Z,99.90
2022-08-08T21:28:33.315Z,99.90
2022-08-08T21:31:05.889Z,99.90
2022-08-08T21:33:50.303Z,99.90
2022-08-08T21:36:20.800Z,99.90
2022-08-08T21:38:50.265Z,99.90
2022-08-08T21:41:28.785Z,99.90
2022-08-08T21:44:06.547Z,99.90
2022-08-08T21:48:07.779Z,99.90
2022-08-08T21:49:23.727Z,99.90
2022-08-08T21:54:22.853Z,99.90
2022-08-08T21:55:02.424Z,99.90
2022-08-08T21:57:42.086Z,99.90
2022-08-08T22:00:14.417Z,99.90
2022-08-08T22:02:44.746Z,99.90
2022-08-08T22:05:14.634Z,99.90
2022-08-08T22:07:44.096Z,99.90
2022-08-08T22:10:31.991Z,99.90
2022-08-08T22:13:17.658Z,99.90
2022-08-08T22:15:59.066Z,99.90
2022-08-08T22:18:31.048Z,99.90
2022-08-08T22:21:08.335Z,99.90
2022-08-08T22:23:49.455Z,99.90
2022-08-08T22:26:28.597Z,99.90
2022-08-08T22:29:14.787Z,99.90
2022-08-08T22:32:01.679Z,99.90
2022-08-08T22:34:32.613Z,99.90
2022-08-08T22:37:00.660Z,99.90
2022-08-08T22:39:46.314Z,99.90
2022-08-08T22:42:26.978Z,99.90
2022-08-08T22:44:55.619Z,99.90
2022-08-08T22:47:24.388Z,99.90
2022-08-08T22:50:27.084Z,99.90
2022-08-08T22:54:15.788Z,99.90
2022-08-08T22:55:58.416Z,99.90
2022-08-08T22:58:31.155Z,99.90
2022-08-08T23:01:01.387Z,99.90
2022-08-08T23:03:34.428Z,99.90
2022-08-08T23:06:18.951Z,99.90
2022-08-08T23:08:54.612Z,99.90
2022-08-08T23:11:31.093Z,99.90
2022-08-08T23:14:12.381Z,99.90
2022-08-08T23:16:43.321Z,99.90
2022-08-08T23:19:12.704Z,99.90
2022-08-08T23:21:45.761Z,99.90
2022-08-08T23:24:22.187Z,99.90
2022-08-08T23:26:53.503Z,99.90
2022-08-08T23:29:24.805Z,99.90
2022-08-08T23:31:53.427Z,99.90
2022-08-08T23:34:22.540Z,99.90
2022-08-08T23:36:57.934Z,99.90
2022-08-08T23:39:32.143Z,99.90
2022-08-08T23:42:09.398Z,99.90
2022-08-08T23:44:38.564Z,99.90
2022-08-08T23:49:05.627Z,99.90
2022-08-08T23:50:02.929Z,99.90
2022-08-08T23:52:33.681Z,99.90
2022-08-08T23:55:13.974Z,99.90
2022-08-08T23:57:52.755Z,99.90
